ラスベガス の空港の天気 - METARとTAF

マッカラン国際空港 ( KLAS / LAS ) - アメリカ ネバダ州ラスベガス
飛行場実況気象(Metar)
観測時間02/06 10:56 PST (02/06 18:56 UTC)
風向・風速北 11m/s 瞬間風速16m/s
視程10km以上
天気現象
少しの雲 雲底高度 3050m
気温12.8℃
湿度22%
気圧1022.7hPa
METARKLAS 061856Z 35022G31KT 10SM FEW100 13/M08 A3021 RMK AO2 PK WND 34031/1849 SLP227 T01281083
過去の天気等 Google飛行場航空写真 Wunderground天気予報

過去48時間のMETAR

飛行場予報(TAF)
発表時間: 2/06 09:20 PST (2/06 17:20 UTC)
予報対象時間: 6日10時 PST ~ 7日16時 PST
風向・風速北北西 10m/s 瞬間風速 14m/s
視程10km以上
なし
6日14時 PST から
風向・風速北 8m/s 瞬間風速 13m/s
視程10km以上
なし
6日18時 PST から
風向・風速北 6m/s 瞬間風速 10m/s
視程10km以上
なし
7日6時 PST から
風向・風速北北西 4m/s
視程10km以上
なし
7日11時 PST から
風向・風速北北東 4m/s
視程10km以上
なし
KLAS 061720Z 0618/0724 34020G28KT P6SM SKC
FM062200 01015G25KT P6SM SKC
FM070200 35011G20KT P6SM SKC
FM071400 34008KT P6SM SKC
FM071900 03007KT P6SM SKC